Terminal Aerodrome Forecast
Issued by NWS Topeka, KS

Home | Current Version | Previous Version | Text Only | Print | Product List | Glossary Off
Versions: 1 2 3 4 5 6 7 8 9 10 11 12 13 14 15 16 17 18 19 20 21 22 23 24 25 26 27

888
FTUS43 KTOP 260911 AAA
TAFTOP
TAF AMD
KTOP 260911Z 2609/2706 10005KT P6SM SCT050
     FM261130 10005KT 6SM BR BKN015 OVC040
     FM261500 12011KT 5SM BR BKN020
     FM261800 13014G21KT P6SM SCT030
     FM262100 15012KT P6SM VCTS BKN035CB=

USA.gov is the U.S. government's official web portal to all federal, state and local government web resources and services.